createdAt,value
2018-07-02T00:00:59.388Z,1012.47
2018-07-02T00:01:59.392Z,1012.48
2018-07-02T00:02:59.404Z,1012.43
2018-07-02T00:03:59.392Z,1012.46
2018-07-02T00:04:59.397Z,1012.47
2018-07-02T00:05:59.529Z,1012.45
2018-07-02T00:06:59.404Z,1012.42
2018-07-02T00:07:59.534Z,1012.40
2018-07-02T00:08:59.398Z,1012.38
2018-07-02T00:09:59.426Z,1012.39
2018-07-02T00:10:59.564Z,1012.38
2018-07-02T00:11:59.426Z,1012.39
2018-07-02T00:12:59.437Z,1012.35
2018-07-02T00:13:59.427Z,1012.35
2018-07-02T00:14:59.433Z,1012.35
2018-07-02T00:15:59.457Z,1012.33
2018-07-02T00:16:59.439Z,1012.35
2018-07-02T00:17:59.441Z,1012.36
2018-07-02T00:18:59.438Z,1012.37
2018-07-02T00:19:59.464Z,1012.36
2018-07-02T00:20:59.449Z,1012.30
2018-07-02T00:21:59.484Z,1012.30
2018-07-02T00:22:59.461Z,1012.34
2018-07-02T00:23:59.451Z,1012.30
2018-07-02T00:24:59.455Z,1012.29
2018-07-02T00:25:59.465Z,1012.29
2018-07-02T00:26:59.444Z,1012.32
2018-07-02T00:27:59.456Z,1012.27
2018-07-02T00:28:59.448Z,1012.29
2018-07-02T00:29:59.482Z,1012.29
2018-07-02T00:30:59.488Z,1012.26
2018-07-02T00:31:59.500Z,1012.29
2018-07-02T00:32:59.482Z,1012.33
2018-07-02T00:34:00.434Z,1012.30
2018-07-02T00:34:59.473Z,1012.29
2018-07-02T00:35:59.491Z,1012.31
2018-07-02T00:36:59.470Z,1012.28
2018-07-02T00:37:59.465Z,1012.30
2018-07-02T00:38:59.521Z,1012.28
2018-07-02T00:39:59.513Z,1012.24
2018-07-02T00:40:59.486Z,1012.28
2018-07-02T00:41:59.532Z,1012.26
2018-07-02T00:42:59.535Z,1012.25
2018-07-02T00:44:00.440Z,1012.20
2018-07-02T00:44:59.511Z,1012.20
2018-07-02T00:45:59.583Z,1012.18
2018-07-02T00:46:59.498Z,1012.15
2018-07-02T00:47:59.538Z,1012.13
2018-07-02T00:48:59.504Z,1012.13
2018-07-02T00:49:59.543Z,1012.10
2018-07-02T00:50:59.515Z,1012.12
2018-07-02T00:51:59.551Z,1012.07
2018-07-02T00:52:59.521Z,1012.07
2018-07-02T00:53:59.547Z,1012.06
2018-07-02T00:54:59.548Z,1012.00
2018-07-02T00:55:59.600Z,1012.01
2018-07-02T00:56:59.558Z,1011.96
2018-07-02T00:57:59.533Z,1011.95
2018-07-02T00:58:59.554Z,1011.93
2018-07-02T00:59:59.547Z,1011.93
2018-07-02T01:00:59.534Z,1011.92
2018-07-02T01:01:59.615Z,1011.92
2018-07-02T01:02:59.585Z,1011.92
2018-07-02T01:03:59.538Z,1011.95
2018-07-02T01:04:59.550Z,1011.94
2018-07-02T01:05:59.571Z,1011.87
2018-07-02T01:06:59.602Z,1011.95
2018-07-02T01:07:59.614Z,1011.92
2018-07-02T01:08:59.567Z,1011.95
2018-07-02T01:09:59.604Z,1011.91
2018-07-02T01:10:59.589Z,1011.92
2018-07-02T01:12:00.450Z,1011.93
2018-07-02T01:12:59.568Z,1011.98
2018-07-02T01:13:59.608Z,1011.95
2018-07-02T01:14:59.618Z,1011.95
2018-07-02T01:15:59.589Z,1011.97
2018-07-02T01:16:59.622Z,1011.94
2018-07-02T01:17:59.601Z,1011.93
2018-07-02T01:18:59.609Z,1011.91
2018-07-02T01:19:59.624Z,1011.87
2018-07-02T01:20:59.603Z,1011.88
2018-07-02T01:21:59.599Z,1011.88
2018-07-02T01:22:59.598Z,1011.86
2018-07-02T01:23:59.610Z,1011.89
2018-07-02T01:25:00.455Z,1011.89
2018-07-02T01:25:59.607Z,1011.91
2018-07-02T01:26:59.621Z,1011.92
2018-07-02T01:27:59.609Z,1011.93
2018-07-02T01:28:59.616Z,1011.90
2018-07-02T01:29:59.630Z,1011.91
2018-07-02T01:30:59.629Z,1011.91
2018-07-02T01:31:59.685Z,1011.93
2018-07-02T01:32:59.633Z,1011.94
2018-07-02T01:33:59.648Z,1011.94
2018-07-02T01:34:59.650Z,1011.88
2018-07-02T01:35:59.670Z,1011.90
2018-07-02T01:36:59.647Z,1011.83
2018-07-02T01:37:59.782Z,1011.91
2018-07-02T01:38:59.685Z,1011.88
2018-07-02T01:39:59.654Z,1011.81
2018-07-02T01:40:59.659Z,1011.84
2018-07-02T01:41:59.682Z,1011.86
2018-07-02T01:42:59.665Z,1011.87
2018-07-02T01:43:59.698Z,1011.91
2018-07-02T01:44:59.653Z,1011.90
2018-07-02T01:45:59.674Z,1011.92
2018-07-02T01:46:59.698Z,1011.93
2018-07-02T01:47:59.670Z,1011.96
2018-07-02T01:48:59.668Z,1011.97
2018-07-02T01:49:59.690Z,1011.95
2018-07-02T01:50:59.679Z,1011.98
2018-07-02T01:51:59.675Z,1012.02
2018-07-02T01:52:59.697Z,1012.03
2018-07-02T01:53:59.679Z,1012.05
2018-07-02T01:54:59.695Z,1012.05
2018-07-02T01:56:00.459Z,1012.06
2018-07-02T01:56:59.683Z,1012.02
2018-07-02T01:57:59.711Z,1012.06
2018-07-02T01:58:59.698Z,1012.05
2018-07-02T01:59:59.723Z,1012.04
2018-07-02T02:00:59.720Z,1012.04
2018-07-02T02:01:59.736Z,1012.05
2018-07-02T02:02:59.730Z,1012.07
2018-07-02T02:03:59.786Z,1012.04
2018-07-02T02:04:59.717Z,1012.11
2018-07-02T02:05:59.708Z,1012.07
2018-07-02T02:06:59.713Z,1012.04
2018-07-02T02:07:59.748Z,1012.10
2018-07-02T02:08:59.725Z,1012.08
2018-07-02T02:09:59.724Z,1012.04
2018-07-02T02:10:59.725Z,1012.07
2018-07-02T02:11:59.781Z,1012.06
2018-07-02T02:12:59.784Z,1012.04
2018-07-02T02:13:59.757Z,1012.06
2018-07-02T02:14:59.744Z,1012.03
2018-07-02T02:15:59.747Z,1012.06
2018-07-02T02:16:59.738Z,1012.03
2018-07-02T02:17:59.730Z,1012.06
2018-07-02T02:18:59.739Z,1012.04
2018-07-02T02:19:59.778Z,1012.06
2018-07-02T02:20:59.815Z,1012.06
2018-07-02T02:21:59.795Z,1012.06
2018-07-02T02:22:59.802Z,1012.10
2018-07-02T02:23:59.783Z,1012.09
2018-07-02T02:24:59.800Z,1012.14
2018-07-02T02:25:59.772Z,1012.11
2018-07-02T02:26:59.787Z,1012.10
2018-07-02T02:27:59.781Z,1012.06
2018-07-02T02:28:59.756Z,1012.11
2018-07-02T02:29:59.771Z,1012.07
2018-07-02T02:30:59.769Z,1012.12
2018-07-02T02:31:59.778Z,1012.10
2018-07-02T02:32:59.784Z,1012.07
2018-07-02T02:33:59.788Z,1012.16
2018-07-02T02:34:59.796Z,1012.15
2018-07-02T02:36:00.475Z,1012.14
2018-07-02T02:36:59.805Z,1012.17
2018-07-02T02:37:59.821Z,1012.13
2018-07-02T02:38:59.805Z,1012.20
2018-07-02T02:39:59.811Z,1012.21
2018-07-02T02:40:59.828Z,1012.22
2018-07-02T02:41:59.831Z,1012.23
2018-07-02T02:42:59.851Z,1012.26
2018-07-02T02:43:59.843Z,1012.24
2018-07-02T02:44:59.835Z,1012.25
2018-07-02T02:45:59.865Z,1012.23
2018-07-02T02:46:59.834Z,1012.21
2018-07-02T02:47:59.844Z,1012.21
2018-07-02T02:48:59.847Z,1012.23
2018-07-02T02:49:59.898Z,1012.17
2018-07-02T02:50:59.847Z,1012.21
2018-07-02T02:51:59.832Z,1012.27
2018-07-02T02:52:59.833Z,1012.21
2018-07-02T02:53:59.828Z,1012.27
2018-07-02T02:54:59.833Z,1012.27
2018-07-02T02:55:59.841Z,1012.31
2018-07-02T02:56:59.837Z,1012.27
2018-07-02T02:57:59.849Z,1012.31
2018-07-02T02:58:59.842Z,1012.29
2018-07-02T02:59:59.850Z,1012.26
2018-07-02T03:00:59.853Z,1012.29
2018-07-02T03:01:59.874Z,1012.30
2018-07-02T03:02:59.898Z,1012.30
2018-07-02T03:03:59.890Z,1012.26
2018-07-02T03:04:59.889Z,1012.27
2018-07-02T03:05:59.904Z,1012.25
2018-07-02T03:06:59.898Z,1012.24
2018-07-02T03:07:59.898Z,1012.24
2018-07-02T03:08:59.904Z,1012.25
2018-07-02T03:09:59.903Z,1012.28
2018-07-02T03:10:59.880Z,1012.27
2018-07-02T03:11:59.903Z,1012.33
2018-07-02T03:12:59.914Z,1012.30
2018-07-02T03:13:59.904Z,1012.32
2018-07-02T03:14:59.910Z,1012.33
2018-07-02T03:16:00.000Z,1012.30
2018-07-02T03:16:59.892Z,1012.31
2018-07-02T03:17:59.896Z,1012.31
2018-07-02T03:18:59.887Z,1012.35
2018-07-02T03:19:59.888Z,1012.33
2018-07-02T03:20:59.903Z,1012.33
2018-07-02T03:21:59.916Z,1012.35
2018-07-02T03:22:59.911Z,1012.36
2018-07-02T03:23:59.942Z,1012.36
2018-07-02T03:24:59.927Z,1012.40
2018-07-02T03:25:59.965Z,1012.39
2018-07-02T03:26:59.922Z,1012.36
2018-07-02T03:27:59.933Z,1012.38
2018-07-02T03:28:59.937Z,1012.37
2018-07-02T03:29:59.939Z,1012.36
2018-07-02T03:30:59.921Z,1012.35
2018-07-02T03:31:59.925Z,1012.38
2018-07-02T03:32:59.935Z,1012.35
2018-07-02T03:33:59.962Z,1012.35
2018-07-02T03:34:59.967Z,1012.35
2018-07-02T03:35:59.940Z,1012.36
2018-07-02T03:36:59.940Z,1012.34
2018-07-02T03:37:59.939Z,1012.37
2018-07-02T03:38:59.954Z,1012.34
2018-07-02T03:39:59.966Z,1012.35
2018-07-02T03:40:59.945Z,1012.31
2018-07-02T03:41:59.953Z,1012.32
2018-07-02T03:42:59.954Z,1012.37
2018-07-02T03:43:59.956Z,1012.35
2018-07-02T03:44:59.962Z,1012.35
2018-07-02T03:45:59.967Z,1012.36
2018-07-02T03:46:59.988Z,1012.37
2018-07-02T03:47:59.979Z,1012.37
2018-07-02T03:49:00.024Z,1012.37
2018-07-02T03:49:59.978Z,1012.45
2018-07-02T03:50:59.997Z,1012.41
2018-07-02T03:51:59.994Z,1012.40
2018-07-02T03:53:00.016Z,1012.46
2018-07-02T03:53:59.993Z,1012.43
2018-07-02T03:54:59.995Z,1012.44
2018-07-02T03:56:00.000Z,1012.43
2018-07-02T03:57:00.142Z,1012.44
2018-07-02T03:58:00.070Z,1012.43
2018-07-02T03:59:00.039Z,1012.42
2018-07-02T04:00:00.015Z,1012.40
2018-07-02T04:01:00.031Z,1012.38
2018-07-02T04:01:59.992Z,1012.39
2018-07-02T04:03:00.011Z,1012.39
2018-07-02T04:04:00.001Z,1012.40
2018-07-02T04:05:00.049Z,1012.42
2018-07-02T04:05:59.998Z,1012.42
2018-07-02T04:07:00.037Z,1012.41
2018-07-02T04:08:00.018Z,1012.39
2018-07-02T04:09:00.012Z,1012.40
2018-07-02T04:10:00.107Z,1012.42
2018-07-02T04:11:00.035Z,1012.40
2018-07-02T04:12:00.065Z,1012.42
2018-07-02T04:13:00.074Z,1012.41
2018-07-02T04:14:00.029Z,1012.41
2018-07-02T04:15:00.045Z,1012.39
2018-07-02T04:16:00.046Z,1012.45
2018-07-02T04:17:00.030Z,1012.45
2018-07-02T04:18:00.038Z,1012.44
2018-07-02T04:19:00.064Z,1012.47
2018-07-02T04:20:00.057Z,1012.47
2018-07-02T04:21:00.049Z,1012.49
2018-07-02T04:22:00.054Z,1012.52
2018-07-02T04:23:00.065Z,1012.54
2018-07-02T04:24:00.068Z,1012.51
2018-07-02T04:25:00.059Z,1012.55
2018-07-02T04:26:00.092Z,1012.56
2018-07-02T04:27:00.100Z,1012.54
2018-07-02T04:28:00.111Z,1012.57
2018-07-02T04:29:00.091Z,1012.56
2018-07-02T04:30:00.110Z,1012.58
2018-07-02T04:31:00.081Z,1012.60
2018-07-02T04:32:00.095Z,1012.63
2018-07-02T04:33:00.121Z,1012.59
2018-07-02T04:34:00.119Z,1012.59
2018-07-02T04:35:00.087Z,1012.56
2018-07-02T04:36:00.111Z,1012.57
2018-07-02T04:37:00.101Z,1012.56
2018-07-02T04:38:01.022Z,1012.60
2018-07-02T04:39:00.123Z,1012.60
2018-07-02T04:40:00.089Z,1012.63
2018-07-02T04:41:00.122Z,1012.64
2018-07-02T04:42:00.091Z,1012.61
2018-07-02T04:43:00.438Z,1012.62
2018-07-02T04:44:00.119Z,1012.64
2018-07-02T04:45:00.133Z,1012.63
2018-07-02T04:46:00.107Z,1012.63
2018-07-02T04:47:00.127Z,1012.66
2018-07-02T04:48:00.108Z,1012.67
2018-07-02T04:49:00.106Z,1012.61
2018-07-02T04:50:00.109Z,1012.66
2018-07-02T04:51:00.246Z,1012.67
2018-07-02T04:52:00.116Z,1012.69
2018-07-02T04:53:00.137Z,1012.72
2018-07-02T04:54:00.133Z,1012.70
2018-07-02T04:55:00.127Z,1012.71
2018-07-02T04:56:00.139Z,1012.77
2018-07-02T04:57:00.136Z,1012.69
2018-07-02T04:58:00.148Z,1012.74
2018-07-02T04:59:00.160Z,1012.73
2018-07-02T05:00:00.151Z,1012.73
2018-07-02T05:01:00.181Z,1012.70
2018-07-02T05:02:00.153Z,1012.78
2018-07-02T05:03:00.155Z,1012.70
2018-07-02T05:04:00.152Z,1012.74
2018-07-02T05:05:00.165Z,1012.74
2018-07-02T05:06:00.149Z,1012.74
2018-07-02T05:07:00.171Z,1012.74
2018-07-02T05:08:00.171Z,1012.82
2018-07-02T05:09:00.295Z,1012.77
2018-07-02T05:10:00.166Z,1012.72
2018-07-02T05:11:00.204Z,1012.70
2018-07-02T05:12:00.184Z,1012.79
2018-07-02T05:13:00.212Z,1012.76
2018-07-02T05:14:00.185Z,1012.80
2018-07-02T05:15:00.186Z,1012.84
2018-07-02T05:16:00.235Z,1012.89
2018-07-02T05:17:00.266Z,1012.89
2018-07-02T05:18:00.206Z,1013.05
2018-07-02T05:19:00.200Z,1013.00
2018-07-02T05:20:00.201Z,1012.97
2018-07-02T05:21:00.200Z,1013.02
2018-07-02T05:22:00.281Z,1012.99
2018-07-02T05:23:00.206Z,1012.97
2018-07-02T05:24:00.241Z,1012.97
2018-07-02T05:25:00.222Z,1012.98
2018-07-02T05:26:00.242Z,1012.99
2018-07-02T05:27:00.229Z,1012.98
2018-07-02T05:28:00.213Z,1013.04
2018-07-02T05:29:00.492Z,1013.03
2018-07-02T05:30:00.250Z,1013.04
2018-07-02T05:31:00.233Z,1013.01
2018-07-02T05:32:00.223Z,1012.97
2018-07-02T05:33:00.219Z,1013.05
2018-07-02T05:34:00.234Z,1012.93
2018-07-02T05:35:00.266Z,1012.97
2018-07-02T05:36:00.259Z,1013.01
2018-07-02T05:37:00.276Z,1013.06
2018-07-02T05:38:00.303Z,1013.05
2018-07-02T05:39:00.289Z,1013.04
2018-07-02T05:40:00.277Z,1013.05
2018-07-02T05:41:00.298Z,1013.07
2018-07-02T05:42:00.261Z,1013.04
2018-07-02T05:43:00.311Z,1013.08
2018-07-02T05:44:00.294Z,1013.06
2018-07-02T05:45:01.041Z,1013.13
2018-07-02T05:46:00.284Z,1013.18
2018-07-02T05:47:00.322Z,1013.15
2018-07-02T05:48:00.314Z,1013.22
2018-07-02T05:49:00.344Z,1013.24
2018-07-02T05:50:00.318Z,1013.29
2018-07-02T05:51:00.334Z,1013.29
2018-07-02T05:52:00.368Z,1013.33
2018-07-02T05:53:00.335Z,1013.35
2018-07-02T05:54:00.360Z,1013.30
2018-07-02T05:55:00.377Z,1013.28
2018-07-02T05:56:00.365Z,1013.28
2018-07-02T05:57:00.355Z,1013.26
2018-07-02T05:58:00.356Z,1013.26
2018-07-02T05:59:00.362Z,1013.23
2018-07-02T06:00:00.366Z,1013.24
2018-07-02T06:01:00.379Z,1013.21
2018-07-02T06:02:00.422Z,1013.27
2018-07-02T06:03:00.426Z,1013.22
2018-07-02T06:04:00.392Z,1013.18
2018-07-02T06:05:00.423Z,1013.21
2018-07-02T06:06:00.417Z,1013.24
2018-07-02T06:07:00.415Z,1013.22
2018-07-02T06:08:00.521Z,1013.24
2018-07-02T06:09:00.458Z,1013.18
2018-07-02T06:10:00.444Z,1013.22
2018-07-02T06:11:00.448Z,1013.28
2018-07-02T06:12:00.477Z,1013.26
2018-07-02T06:13:00.479Z,1013.23
2018-07-02T06:14:00.571Z,1013.15
2018-07-02T06:15:00.487Z,1013.16
2018-07-02T06:16:00.493Z,1013.21
2018-07-02T06:17:00.494Z,1013.24
2018-07-02T06:18:00.556Z,1013.33
2018-07-02T06:19:00.568Z,1013.25
2018-07-02T06:20:00.526Z,1013.30
2018-07-02T06:21:00.522Z,1013.28
2018-07-02T06:22:00.533Z,1013.29
2018-07-02T06:23:01.080Z,1013.33
2018-07-02T06:24:00.550Z,1013.32
2018-07-02T06:25:00.566Z,1013.31
2018-07-02T06:26:00.598Z,1013.38
2018-07-02T06:27:00.571Z,1013.37
2018-07-02T06:28:00.610Z,1013.36
2018-07-02T06:29:00.604Z,1013.41
2018-07-02T06:30:00.605Z,1013.36
2018-07-02T06:31:00.619Z,1013.42
2018-07-02T06:32:00.631Z,1013.46
2018-07-02T06:33:00.625Z,1013.40
2018-07-02T06:34:00.665Z,1013.41
2018-07-02T06:35:00.651Z,1013.54
2018-07-02T06:36:00.694Z,1013.54
2018-07-02T06:37:00.678Z,1013.54
2018-07-02T06:38:00.683Z,1013.54
2018-07-02T06:39:00.730Z,1013.60
2018-07-02T06:40:00.703Z,1013.59
2018-07-02T06:41:00.708Z,1013.62
2018-07-02T06:42:00.758Z,1013.63
2018-07-02T06:43:00.723Z,1013.52
2018-07-02T06:44:00.751Z,1013.59
2018-07-02T06:45:00.769Z,1013.51
2018-07-02T06:46:00.815Z,1013.59
2018-07-02T06:47:00.796Z,1013.58
2018-07-02T06:48:00.779Z,1013.64
2018-07-02T06:49:00.799Z,1013.66
2018-07-02T06:50:00.903Z,1013.70
2018-07-02T06:51:00.849Z,1013.67
2018-07-02T06:52:00.830Z,1013.77
2018-07-02T06:53:00.831Z,1013.79
2018-07-02T06:54:00.888Z,1013.69
2018-07-02T06:55:00.886Z,1013.77
2018-07-02T06:56:00.869Z,1013.84
2018-07-02T06:57:00.912Z,1013.81
2018-07-02T06:58:00.907Z,1013.89
2018-07-02T06:59:00.911Z,1013.92
2018-07-02T07:00:00.936Z,1013.95
2018-07-02T07:01:01.130Z,1014.11
2018-07-02T07:02:00.973Z,1014.11
2018-07-02T07:03:00.969Z,1014.08
2018-07-02T07:04:00.989Z,1014.15
2018-07-02T07:05:01.015Z,1014.18
2018-07-02T07:06:01.027Z,1014.25
2018-07-02T07:07:01.001Z,1014.30
2018-07-02T07:08:01.038Z,1014.39
2018-07-02T07:09:01.071Z,1014.42
2018-07-02T07:10:01.077Z,1014.50
2018-07-02T07:11:01.107Z,1014.64
2018-07-02T07:12:01.071Z,1014.67
2018-07-02T07:13:01.131Z,1014.80
2018-07-02T07:14:01.101Z,1014.96
2018-07-02T07:15:01.142Z,1015.17
2018-07-02T07:16:01.127Z,1015.74
2018-07-02T07:17:01.145Z,1016.31
2018-07-02T07:18:01.153Z,1017.46
2018-07-02T07:19:01.209Z,1018.75
2018-07-02T07:20:01.301Z,1019.25
2018-07-02T07:21:01.263Z,1019.63
2018-07-02T07:22:01.298Z,1019.68
2018-07-02T07:23:01.246Z,1020.42
2018-07-02T07:24:01.341Z,1022.05
2018-07-02T07:25:01.274Z,1022.51
2018-07-02T07:26:01.325Z,1023.33
2018-07-02T07:27:01.360Z,1025.11
2018-07-02T07:28:01.312Z,1025.70
2018-07-02T07:29:01.324Z,1026.59
2018-07-02T07:30:01.376Z,1027.47
2018-07-02T07:31:01.496Z,1028.18
2018-07-02T07:32:01.385Z,1028.52
2018-07-02T07:33:01.450Z,1028.66
2018-07-02T07:34:01.392Z,1029.52
2018-07-02T07:35:01.502Z,1028.49
2018-07-02T07:36:02.108Z,1027.41
2018-07-02T07:37:01.435Z,1027.69
2018-07-02T07:38:01.449Z,1028.54
2018-07-02T07:39:01.444Z,1029.59
2018-07-02T07:40:01.486Z,1030.30
2018-07-02T07:41:01.470Z,1031.18
2018-07-02T07:42:01.639Z,1031.02
2018-07-02T07:43:01.498Z,1032.16
2018-07-02T07:44:01.584Z,1033.65
2018-07-02T07:45:01.558Z,1034.03
2018-07-02T07:46:01.521Z,1034.78
2018-07-02T07:47:01.576Z,1035.19
2018-07-02T07:48:01.805Z,1037.84
2018-07-02T07:49:01.661Z,1037.96
2018-07-02T07:50:01.609Z,1037.12
2018-07-02T07:51:01.620Z,1038.69
2018-07-02T07:52:01.625Z,1039.54
2018-07-02T07:53:02.411Z,1039.26
2018-07-02T07:54:01.720Z,1040.63
2018-07-02T07:55:01.755Z,1042.01
2018-07-02T07:56:01.826Z,1042.17
2018-07-02T07:57:01.798Z,1043.36
2018-07-02T07:58:01.763Z,1042.58
2018-07-02T07:59:02.803Z,1041.47
2018-07-02T08:00:02.778Z,1041.13
2018-07-02T08:01:02.192Z,1039.76
2018-07-02T08:02:01.910Z,1042.11
2018-07-02T08:03:01.849Z,1044.53
2018-07-02T08:04:02.227Z,1040.87
2018-07-02T08:05:01.922Z,1039.34
2018-07-02T08:06:01.974Z,1042.22
2018-07-02T08:07:02.178Z,1043.10
2018-07-02T08:08:01.903Z,1043.34
2018-07-02T08:09:01.886Z,1043.93
2018-07-02T08:10:01.912Z,1046.46
2018-07-02T08:11:02.715Z,1042.85
2018-07-02T08:12:02.032Z,1042.28
2018-07-02T08:13:02.011Z,1046.37
2018-07-02T08:14:02.012Z,1042.20
2018-07-02T08:15:02.092Z,1037.14
2018-07-02T08:17:09.044Z,1041.07
2018-07-02T08:18:02.128Z,1045.65
2018-07-02T08:19:02.188Z,1047.48
2018-07-02T08:20:02.262Z,1045.02
2018-07-02T08:21:02.183Z,1043.92
2018-07-02T08:22:02.109Z,1042.72
2018-07-02T08:23:02.152Z,1041.77
2018-07-02T08:24:02.187Z,1041.54
2018-07-02T08:25:02.195Z,1042.87
2018-07-02T08:26:02.206Z,1044.35
2018-07-02T08:27:02.210Z,1040.15
2018-07-02T08:28:02.224Z,1040.67
2018-07-02T08:29:02.290Z,1042.80
2018-07-02T08:30:02.351Z,1043.14
2018-07-02T08:31:02.323Z,1042.88
2018-07-02T08:32:02.397Z,1039.49
2018-07-02T08:33:02.399Z,1039.72
2018-07-02T08:34:02.349Z,1041.99
2018-07-02T08:35:03.640Z,1039.78
2018-07-02T08:36:02.421Z,1040.82
2018-07-02T08:37:04.975Z,1042.37
2018-07-02T08:38:02.544Z,1041.91
2018-07-02T08:39:02.418Z,1039.16
2018-07-02T08:40:02.528Z,1036.23
2018-07-02T08:41:02.514Z,1036.94
2018-07-02T08:42:02.510Z,1036.80
2018-07-02T08:43:02.495Z,1035.23
2018-07-02T08:44:02.591Z,1035.79
2018-07-02T08:45:02.644Z,1034.93
2018-07-02T08:46:02.699Z,1033.37
2018-07-02T08:47:02.687Z,1031.42
2018-07-02T22:00:58.201Z,1012.47
2018-07-02T22:01:58.004Z,1012.48
2018-07-02T22:02:57.958Z,1012.46
2018-07-02T22:03:57.994Z,1012.49
2018-07-02T22:04:58.194Z,1012.49
2018-07-02T22:05:57.969Z,1012.45
2018-07-02T22:06:57.938Z,1012.49
2018-07-02T22:07:57.980Z,1012.50
2018-07-02T22:08:58.000Z,1012.51
2018-07-02T22:09:58.003Z,1012.54
2018-07-02T22:10:58.011Z,1012.53
2018-07-02T22:11:58.803Z,1012.52
2018-07-02T22:12:57.991Z,1012.55
2018-07-02T22:13:57.977Z,1012.54
2018-07-02T22:14:57.969Z,1012.56
2018-07-02T22:15:58.023Z,1012.55
2018-07-02T22:16:57.967Z,1012.58
2018-07-02T22:17:58.020Z,1012.56
2018-07-02T22:18:58.023Z,1012.59
2018-07-02T22:19:58.052Z,1012.61
2018-07-02T22:20:57.996Z,1012.58
2018-07-02T22:21:58.051Z,1012.62
2018-07-02T22:22:58.045Z,1012.63
2018-07-02T22:23:58.036Z,1012.59
2018-07-02T22:24:58.026Z,1012.58
2018-07-02T22:25:58.146Z,1012.56
2018-07-02T22:26:58.020Z,1012.55
2018-07-02T22:27:58.045Z,1012.62
2018-07-02T22:28:58.027Z,1012.61
2018-07-02T22:29:58.066Z,1012.55
2018-07-02T22:30:58.077Z,1012.62
2018-07-02T22:31:58.063Z,1012.59
2018-07-02T22:32:58.027Z,1012.64
2018-07-02T22:33:58.009Z,1012.58
2018-07-02T22:34:58.008Z,1012.62
2018-07-02T22:35:58.036Z,1012.63
2018-07-02T22:36:58.038Z,1012.61
2018-07-02T22:37:58.104Z,1012.63
2018-07-02T22:38:58.071Z,1012.63
2018-07-02T22:53:15.539Z,1012.52
2018-07-02T22:53:44.842Z,1012.52
2018-07-02T22:54:44.835Z,1012.54
2018-07-02T22:55:44.885Z,1012.54
2018-07-02T22:56:44.926Z,1012.54
2018-07-02T22:57:44.862Z,1012.54
2018-07-02T22:58:44.884Z,1012.55
2018-07-02T22:59:44.961Z,1012.57
2018-07-02T23:00:44.880Z,1012.61
2018-07-02T23:01:44.885Z,1012.63
2018-07-02T23:02:44.883Z,1012.63
2018-07-02T23:03:44.905Z,1012.63
2018-07-02T23:04:44.906Z,1012.62
2018-07-02T23:05:44.898Z,1012.65
2018-07-02T23:06:44.897Z,1012.66
2018-07-02T23:07:44.922Z,1012.65
2018-07-02T23:08:44.913Z,1012.65
2018-07-02T23:09:44.917Z,1012.69
2018-07-02T23:10:44.919Z,1012.68
2018-07-02T23:11:44.935Z,1012.70
2018-07-02T23:12:44.999Z,1012.66
2018-07-02T23:13:44.912Z,1012.64
2018-07-02T23:14:44.944Z,1012.67
2018-07-02T23:15:44.929Z,1012.67
2018-07-02T23:16:44.894Z,1012.73
2018-07-02T23:17:44.918Z,1012.72
2018-07-02T23:18:44.937Z,1012.72
2018-07-02T23:19:44.948Z,1012.74
2018-07-02T23:20:44.929Z,1012.68
2018-07-02T23:21:44.968Z,1012.67
2018-07-02T23:22:44.936Z,1012.70
2018-07-02T23:23:44.927Z,1012.72
2018-07-02T23:24:44.972Z,1012.69
2018-07-02T23:25:44.959Z,1012.74
2018-07-02T23:26:45.016Z,1012.71
2018-07-02T23:27:45.554Z,1012.70
2018-07-02T23:28:44.982Z,1012.67
2018-07-02T23:29:44.983Z,1012.68
2018-07-02T23:30:44.987Z,1012.70
2018-07-02T23:31:44.999Z,1012.66
2018-07-02T23:32:44.983Z,1012.68
2018-07-02T23:33:45.000Z,1012.64
2018-07-02T23:34:44.982Z,1012.68
2018-07-02T23:35:44.967Z,1012.69
2018-07-02T23:36:45.039Z,1012.68
2018-07-02T23:37:44.967Z,1012.67
2018-07-02T23:38:45.011Z,1012.68
2018-07-02T23:39:45.010Z,1012.70
2018-07-02T23:40:45.557Z,1012.72
2018-07-02T23:41:45.072Z,1012.68
2018-07-02T23:42:45.000Z,1012.66
2018-07-02T23:43:45.559Z,1012.66
2018-07-02T23:44:44.995Z,1012.66
2018-07-02T23:45:45.026Z,1012.65
2018-07-02T23:46:45.045Z,1012.63
2018-07-02T23:47:45.055Z,1012.63
2018-07-02T23:48:45.025Z,1012.63
2018-07-02T23:49:45.072Z,1012.62
2018-07-02T23:50:45.024Z,1012.61
2018-07-02T23:51:45.040Z,1012.67
2018-07-02T23:52:45.042Z,1012.64
2018-07-02T23:53:45.052Z,1012.62
2018-07-02T23:54:45.059Z,1012.63
2018-07-02T23:55:45.084Z,1012.65
2018-07-02T23:56:44.999Z,1012.65
2018-07-02T23:57:45.071Z,1012.64
2018-07-02T23:58:45.063Z,1012.65
2018-07-02T23:59:45.073Z,1012.64
